Data for 04/28/2013

Time Sea-Level Adjusted Pressure Absolute Pressure Temperature Relative Humidity Dew Point   
(mb) (inHg) (mb) (inHg) (C) (F) (%) (C) (F)
00:05 1016 30 846 24.98 13.6 56.6 25 -6 21.3
00:10 1017 30.03 846 24.98 13.6 56.5 25 -5.9 21.3
00:15 1017 30.03 846 24.98 13.6 56.4 25 -5.9 21.4
00:20 1017 30.03 846 24.98 13.6 56.4 25 -5.8 21.5
00:25 1017 30.03 846 24.98 13.6 56.4 25 -5.8 21.5
00:30 1017 30.03 846 24.98 13.5 56.3 26 -5.6 21.8
00:35 1017 30.03 846 24.98 13.3 55.9 26 -5.6 21.9
00:40 1017 30.03 846 24.98 13.1 55.6 27 -5.6 21.9
00:45 1016 30 846 24.98 13.1 55.5 27 -5.7 21.7
00:50 1016 30 846 24.98 12.9 55.2 28 -5.4 22.4
00:55 1016 30 846 24.98 12.8 55 27 -5.6 22
01:00 1016 30 846 24.98 12.8 55 27 -5.6 21.9
01:05 1016 30 846 24.98 12.7 54.8 28 -5.3 22.4
01:10 1016 30 846 24.98 12.5 54.6 28 -5.4 22.4
01:15 1016 30 846 24.98 12.6 54.6 28 -5.3 22.4
01:20 1016 30 846 24.98 12.7 54.8 28 -5.4 22.2
01:25 1016 30 846 24.98 12.8 55.1 28 -5.2 22.6
01:30 1016 30 846 24.98 12.7 54.9 28 -5.1 22.8
01:35 1016 30 846 24.98 12.6 54.7 29 -5.1 22.8
01:40 1016 30 846 24.98 12.5 54.4 29 -5 23.1
01:45 1016 30 846 24.98 12.4 54.3 30 -4.8 23.4
01:50 1016 30 846 24.98 12.3 54.1 30 -4.6 23.7
01:55 1016 30 846 24.98 12.3 54.1 31 -4.5 23.9
02:00 1016 30 846 24.98 12.2 54 31 -4.4 24.1
02:05 1016 30 846 24.98 12.1 53.9 31 -4.4 24.1
02:10 1016 30 846 24.98 12.1 53.8 31 -4.3 24.3
02:15 1016 30 846 24.98 12.1 53.7 31 -4.5 23.9
02:20 1016 30 846 24.98 12.1 53.7 31 -4.3 24.2
02:25 1016 30 846 24.98 12 53.6 32 -4.3 24.3
02:30 1016 30 846 24.98 12 53.6 31 -4.4 24.2
02:35 1016 30 846 24.98 12 53.6 32 -4.3 24.2
02:40 1016 30 846 24.98 11.9 53.5 32 -4.3 24.2
02:45 1017 30.03 846 24.98 12 53.5 31 -4.4 24.1
02:50 1017 30.03 846 24.98 12 53.6 32 -4.2 24.4
02:55 1017 30.03 846 24.98 11.8 53.3 32 -4.2 24.4
03:00 1017 30.03 846 24.98 11.8 53.3 32 -4.2 24.5
03:05 1017 30.03 846 24.98 11.8 53.3 33 -4 24.7
03:10 1017 30.03 846 24.98 11.8 53.2 33 -4.1 24.6
03:15 1017 30.03 846 24.98 11.7 53.1 33 -3.9 25
03:20 1017 30.03 846 24.98 11.7 53.1 33 -4 24.8
03:25 1017 30.03 846 24.98 11.7 53.1 33 -4.1 24.7
03:30 1017 30.03 846 24.98 11.8 53.2 32 -4.2 24.4
03:35 1017 30.03 846 24.98 11.9 53.4 31 -4.5 23.9
03:40 1017 30.03 846 24.98 12.1 53.7 31 -4.7 23.6
03:45 1017 30.03 846 24.98 12 53.6 32 -4.3 24.3
03:50 1017 30.03 846 24.98 11.8 53.2 33 -4 24.8
03:55 1017 30.03 846 24.98 11.5 52.8 34 -3.8 25.1
04:00 1017 30.03 846 24.98 11.4 52.5 34 -3.9 25
04:05 1017 30.03 846 24.98 11.3 52.3 36 -3.3 26.1
04:10 1017 30.03 846 24.98 11.1 52 36 -3.3 26
04:15 1017 30.03 846 24.98 11.1 51.9 36 -3.4 25.9
04:20 1017 30.03 847 25.01 11.1 51.9 36 -3.4 25.9
04:25 1017 30.03 846 24.98 11.2 52.1 36 -3.3 26.1
04:30 1017 30.03 847 25.01 11.1 52.1 36 -3.3 26
04:35 1017 30.03 846 24.98 11 51.8 35 -3.9 25.1
04:40 1017 30.03 847 25.01 11 51.8 35 -3.8 25.1
04:45 1017 30.03 847 25.01 11 51.8 35 -3.9 24.9
04:50 1017 30.03 847 25.01 11 51.8 34 -4.1 24.7
04:55 1017 30.03 847 25.01 11 51.8 34 -4.1 24.7
05:00 1017 30.03 847 25.01 11 51.7 34 -4.1 24.6
05:05 1017 30.03 847 25.01 10.9 51.7 34 -4.2 24.4
05:10 1017 30.03 847 25.01 11 51.7 34 -4.3 24.2
05:15 1018 30.06 847 25.01 11 51.7 34 -4.1 24.5
05:20 1018 30.06 847 25.01 11 51.7 35 -4.1 24.7
05:25 1018 30.06 847 25.01 10.9 51.5 35 -4 24.7
05:30 1018 30.06 847 25.01 10.8 51.4 35 -4 24.7
05:35 1018 30.06 847 25.01 10.8 51.4 35 -4 24.9
05:40 1018 30.06 847 25.01 10.7 51.2 36 -3.8 25.2
05:45 1018 30.06 847 25.01 10.5 51 36 -3.7 25.3
05:50 1018 30.06 847 25.01 10.4 50.8 37 -3.8 25.2
05:55 1018 30.06 847 25.01 10.3 50.6 37 -3.7 25.4
06:00 1018 30.06 847 25.01 10.3 50.5 37 -3.7 25.4
06:05 1018 30.06 847 25.01 10.2 50.3 38 -3.6 25.5
06:10 1018 30.06 847 25.01 10.2 50.3 38 -3.5 25.7
06:15 1018 30.06 847 25.01 10.1 50.2 38 -3.4 25.8
06:20 1018 30.06 847 25.01 10.1 50.2 38 -3.5 25.8
06:25 1018 30.06 847 25.01 10.1 50.2 38 -3.4 25.8
06:30 1018 30.06 847 25.01 10.1 50.1 39 -3.3 26.1
06:35 1018 30.06 847 25.01 10.1 50.1 39 -3.2 26.3
06:40 1018 30.06 847 25.01 10 50.1 39 -3.1 26.4
06:45 1018 30.06 847 25.01 10.1 50.1 40 -3 26.7
06:50 1018 30.06 847 25.01 10 50 40 -2.8 26.9
06:55 1018 30.06 847 25.01 10 50 41 -2.7 27.1
07:00 1018 30.06 847 25.01 9.9 49.8 41 -2.7 27.2
07:05 1018 30.06 847 25.01 9.9 49.7 41 -2.6 27.3
07:10 1018 30.06 847 25.01 9.9 49.8 42 -2.5 27.4
07:15 1018 30.06 847 25.01 9.9 49.7 42 -2.5 27.5
07:20 1018 30.06 847 25.01 9.8 49.7 42 -2.5 27.4
07:25 1018 30.06 848 25.04 9.7 49.5 44 -2 28.4
07:30 1019 30.09 848 25.04 9.5 49.2 44 -2.1 28.1
07:35 1019 30.09 848 25.04 9.5 49 44 -2.2 28.1
07:40 1019 30.09 848 25.04 9.5 49.1 43 -2.3 27.8
07:45 1019 30.09 848 25.04 9.2 48.5 48 -1.1 30.1
07:50 1019 30.09 848 25.04 8.8 47.8 52 -0.5 31.1
07:55 1019 30.09 848 25.04 8.9 48 50 -1.1 30.1
08:00 1019 30.09 848 25.04 8.9 48 50 -1 30.2
08:05 1019 30.09 848 25.04 8.9 48 48 -1.6 29.2
08:10 1019 30.09 848 25.04 8.9 48.1 48 -1.6 29.2
08:15 1019 30.09 848 25.04 9.1 48.4 48 -1.3 29.7
08:20 1019 30.09 848 25.04 9.2 48.6 46 -1.7 28.9
08:25 1018 30.06 848 25.04 9.3 48.7 46 -1.6 29.1
08:30 1018 30.06 848 25.04 9.4 49 46 -1.6 29.1
08:35 1018 30.06 848 25.04 9.6 49.3 46 -1.4 29.4
08:40 1018 30.06 848 25.04 9.8 49.6 46 -1.3 29.7
08:45 1018 30.06 848 25.04 9.8 49.7 45 -1.6 29.1
08:50 1018 30.06 848 25.04 9.9 49.8 44 -1.8 28.8
08:55 1018 30.06 848 25.04 10.3 50.5 45 -1.1 30
09:00 1018 30.06 847 25.01 10.3 50.6 47 -0.3 31.4
09:05 1018 30.06 847 25.01 10.3 50.6 46 -0.7 30.8
09:10 1018 30.06 847 25.01 10 49.9 48 -0.4 31.3
09:15 1018 30.06 847 25.01 10.1 50.2 48 -0.4 31.2
09:20 1018 30.06 847 25.01 10.2 50.3 46 -0.8 30.6
09:25 1018 30.06 847 25.01 10.4 50.8 46 -0.6 31
09:30 1018 30.06 847 25.01 10.9 51.5 43 -1.3 29.6
09:35 1018 30.06 847 25.01 11 51.8 42 -1.5 29.3
09:40 1018 30.06 847 25.01 11.1 52 43 -1.1 30.1
09:45 1018 30.06 847 25.01 10.8 51.4 43 -1.2 29.9
09:50 1018 30.06 847 25.01 10.6 51 42 -1.6 29.1
09:55 1018 30.06 847 25.01 11 51.9 45 -0.3 31.4
10:00 1018 30.06 847 25.01 11 51.8 40 -1.9 28.6
10:05 1018 30.06 847 25.01 11 51.7 42 -1.4 29.5
10:10 1018 30.06 847 25.01 10.7 51.3 42 -1.7 29
10:15 1018 30.06 847 25.01 10.8 51.4 42 -1.6 29.1
10:20 1018 30.06 847 25.01 10.8 51.4 46 -0.4 31.3
10:25 1018 30.06 847 25.01 10.5 50.8 48 0.1 32.2
10:30 1018 30.06 847 25.01 10.4 50.8 47 -0.3 31.4
10:35 1018 30.06 847 25.01 11 51.7 51 1.3 34.4
10:40 1018 30.06 847 25.01 11.1 51.9 44 -0.8 30.5
10:45 1017 30.03 847 25.01 11.2 52.2 42 -1.1 30
10:50 1017 30.03 847 25.01 11.8 53.3 44 0.1 32.2
10:55 1017 30.03 847 25.01 12.6 54.7 38 -1.2 29.8
11:00 1017 30.03 847 25.01 12.8 55 37 -1.3 29.6
11:05 1017 30.03 847 25.01 12.9 55.2 35 -2.1 28.2
11:10 1017 30.03 847 25.01 13.2 55.7 34 -2.2 28
11:15 1017 30.03 846 24.98 13 55.5 33 -2.6 27.3
11:20 1017 30.03 846 24.98 13.3 55.9 32 -2.9 26.8
11:25 1017 30.03 846 24.98 12.9 55.2 33 -3.1 26.4
11:30 1017 30.03 846 24.98 12.2 54 34 -3.1 26.4
11:35 1017 30.03 846 24.98 12.6 54.6 34 -2.7 27.2
11:40 1017 30.03 846 24.98 12.4 54.4 34 -3.1 26.5
11:45 1017 30.03 846 24.98 12.9 55.1 33 -2.9 26.7
11:50 1017 30.03 846 24.98 13.8 56.8 31 -3.2 26.3
11:55 1017 30.03 846 24.98 13.7 56.7 31 -2.9 26.8
12:00 1017 30.03 846 24.98 14 57.1 30 -3.1 26.4
12:05 1017 30.03 846 24.98 15 58.9 27 -3.6 25.6
12:10 1017 30.03 846 24.98 14.9 58.9 28 -3.4 25.8
12:15 1017 30.03 846 24.98 14.7 58.5 29 -3.2 26.3
12:20 1017 30.03 846 24.98 14.1 57.5 29 -3.7 25.4
12:25 1016 30 846 24.98 14.6 58.3 28 -3.7 25.4
12:30 1016 30 846 24.98 14.8 58.6 28 -3.7 25.4
12:35 1016 30 846 24.98 14.6 58.2 28 -3.7 25.3
12:40 1016 30 845 24.95 14.6 58.2 28 -3.8 25.1
12:45 1016 30 845 24.95 15.1 59.2 26 -4 24.8
12:50 1016 30 845 24.95 15.8 60.4 26 -3.8 25.1
12:55 1016 30 845 24.95 15.8 60.4 26 -3.8 25.2
13:00 1016 30 845 24.95 15.1 59.2 26 -4.3 24.3
13:05 1016 30 845 24.95 15.3 59.6 25 -4.4 24.1
13:10 1016 30 845 24.95 15.5 59.8 26 -3.7 25.4
13:15 1016 30 845 24.95 14.9 58.9 27 -3.9 25
13:20 1016 30 845 24.95 14.4 58 28 -3.8 25.1
13:25 1016 30 845 24.95 14.6 58.2 27 -4.1 24.6
13:30 1016 30 845 24.95 14.3 57.8 29 -3.4 26
13:35 1016 30 845 24.95 14.2 57.6 29 -3.4 25.9
13:40 1016 30 845 24.95 15.2 59.3 28 -3.3 26
13:45 1016 30 845 24.95 15.4 59.6 27 -3.4 25.9
13:50 1016 30 845 24.95 14.8 58.7 27 -3.8 25.2
13:55 1016 30 845 24.95 14.3 57.8 29 -3.2 26.3
14:00 1016 30 845 24.95 14.1 57.3 30 -3.4 25.9
14:05 1016 30 845 24.95 14.9 58.8 29 -3.1 26.4
14:10 1016 30 845 24.95 14.8 58.6 28 -3.3 26.1
14:15 1016 30 845 24.95 14.2 57.6 30 -3.1 26.4
14:20 1016 30 845 24.95 13.7 56.7 31 -2.9 26.8
14:25 1016 30 845 24.95 13.5 56.4 30 -3.6 25.5
14:30 1015 29.97 845 24.95 13.7 56.6 29 -4.1 24.7
14:35 1015 29.97 845 24.95 14.7 58.5 28 -3.5 25.6
14:40 1015 29.97 844 24.92 15.2 59.3 24 -5.3 22.4
14:45 1015 29.97 844 24.92 15 58.9 26 -4.3 24.3
14:50 1015 29.97 844 24.92 14.8 58.6 27 -4.1 24.7
14:55 1015 29.97 844 24.92 15.2 59.4 26 -4.1 24.6
15:00 1015 29.97 844 24.92 15.1 59.2 25 -4.6 23.7
15:05 1015 29.97 844 24.92 15.2 59.4 24 -5.2 22.7
15:10 1015 29.97 844 24.92 15.9 60.5 23 -5.1 22.8
15:15 1015 29.97 844 24.92 16.3 61.4 23 -4.9 23.1
15:20 1015 29.97 844 24.92 16 60.8 25 -4.1 24.6
15:25 1015 29.97 844 24.92 16.4 61.5 21 -5.6 21.9
15:30 1014 29.94 844 24.92 16.2 61.1 23 -5.2 22.7
15:35 1014 29.94 844 24.92 16.3 61.4 22 -5.3 22.5
15:40 1014 29.94 844 24.92 16.3 61.4 23 -5 23
15:45 1014 29.94 843 24.89 16.5 61.7 22 -5.1 22.9
15:50 1014 29.94 843 24.89 16.2 61.2 23 -5 22.9
15:55 1014 29.94 843 24.89 16 60.8 23 -5.3 22.5
16:00 1014 29.94 843 24.89 16 60.9 21 -6.3 20.7
16:05 1014 29.94 843 24.89 16.5 61.8 22 -5.3 22.5
16:10 1014 29.94 843 24.89 16.2 61.1 22 -5.4 22.3
16:15 1014 29.94 843 24.89 15.9 60.6 21 -6.4 20.5
16:20 1014 29.94 843 24.89 15.8 60.4 21 -6.7 19.9
16:25 1014 29.94 843 24.89 15.7 60.3 20 -7.2 19
16:30 1014 29.94 843 24.89 16.3 61.3 19 -7 19.4
16:35 1014 29.94 843 24.89 16.2 61.1 20 -7 19.4
16:40 1014 29.94 843 24.89 16.2 61.2 20 -6.7 20
16:45 1014 29.94 843 24.89 16.9 62.4 19 -6.5 20.3
16:50 1013 29.91 843 24.89 17 62.6 17 -8.2 17.3
16:55 1013 29.91 842 24.86 16.7 62 17 -8.2 17.2
17:00 1013 29.91 842 24.86 16.7 62.1 17 -8.3 17.1
17:05 1013 29.91 842 24.86 16.5 61.8 18 -7.8 17.9
17:10 1013 29.91 843 24.89 15.9 60.6 19 -7.8 17.9
17:15 1013 29.91 842 24.86 15.7 60.2 18 -8.3 17.1
17:20 1013 29.91 842 24.86 15.5 59.9 19 -8.3 17.1
17:25 1013 29.91 842 24.86 15.4 59.7 19 -8.3 17
17:30 1013 29.91 842 24.86 15.8 60.5 18 -8.7 16.4
17:35 1013 29.91 842 24.86 16.5 61.8 18 -7.8 17.9
17:40 1013 29.91 842 24.86 16.9 62.5 18 -7.7 18.2
17:45 1013 29.91 842 24.86 16.9 62.3 18 -7.5 18.5
17:50 1013 29.91 842 24.86 16.4 61.5 18 -7.9 17.7
17:55 1013 29.91 842 24.86 16.1 61 18 -7.9 17.7
18:00 1013 29.91 842 24.86 15.9 60.6 18 -8.2 17.2
18:05 1013 29.91 842 24.86 15.8 60.4 19 -7.7 18.1
18:10 1013 29.91 842 24.86 15.7 60.3 19 -7.6 18.3
18:15 1013 29.91 842 24.86 15.6 60.1 19 -8 17.7
18:20 1013 29.91 842 24.86 15.3 59.6 19 -7.9 17.8
18:25 1013 29.91 842 24.86 15.1 59.2 19 -8.6 16.5
18:30 1013 29.91 842 24.86 15 58.9 19 -8.6 16.4
18:35 1013 29.91 842 24.86 14.8 58.7 19 -8.8 16.2
18:40 1013 29.91 842 24.86 14.8 58.6 19 -8.6 16.6
18:45 1013 29.91 842 24.86 14.7 58.5 19 -8.7 16.4
18:50 1013 29.91 842 24.86 14.7 58.4 19 -8.6 16.6
18:55 1013 29.91 842 24.86 14.5 58.2 19 -8.7 16.3
19:00 1013 29.91 842 24.86 14.3 57.8 19 -8.6 16.4
19:05 1013 29.91 842 24.86 14.1 57.4 20 -8.4 16.9
19:10 1013 29.91 842 24.86 13.9 57.1 21 -8.3 17.1
19:15 1013 29.91 842 24.86 13.7 56.7 21 -8.2 17.2
19:20 1013 29.91 842 24.86 13.5 56.3 21 -8.5 16.6
19:25 1013 29.91 842 24.86 13.3 56 21 -8.4 16.9
19:30 1013 29.91 842 24.86 13.2 55.7 21 -8.6 16.5
19:35 1013 29.91 842 24.86 13 55.4 22 -8.4 16.8
19:40 1013 29.91 842 24.86 12.8 55.1 22 -8.4 16.8
19:45 1013 29.91 842 24.86 12.7 54.9 22 -8.4 16.9
19:50 1013 29.91 842 24.86 12.6 54.7 22 -8.4 16.9
19:55 1013 29.91 842 24.86 12.5 54.5 23 -8.2 17.2
20:00 1013 29.91 842 24.86 12.3 54.2 23 -8.2 17.3
20:05 1013 29.91 842 24.86 12.2 53.9 24 -8.1 17.5
20:10 1013 29.91 842 24.86 11.9 53.5 24 -8 17.7
20:15 1013 29.91 842 24.86 11.7 53 25 -7.8 18
20:20 1013 29.91 842 24.86 11.4 52.6 25 -7.8 17.9
20:25 1013 29.91 842 24.86 11.2 52.1 26 -7.7 18.2
20:30 1013 29.91 842 24.86 11 51.7 27 -7.4 18.7
20:35 1013 29.91 843 24.89 10.5 50.8 28 -7.3 18.8
20:40 1013 29.91 843 24.89 10 49.9 29 -7.2 19
20:45 1013 29.91 843 24.89 9.4 48.9 30 -7.3 18.8
20:50 1013 29.91 843 24.89 9.4 48.9 30 -7.4 18.7
20:55 1013 29.91 843 24.89 9.5 49 29 -7.5 18.5
21:00 1013 29.91 843 24.89 9.7 49.4 29 -7.5 18.6
21:05 1014 29.94 843 24.89 9.8 49.7 29 -7.2 19
21:10 1014 29.94 843 24.89 9.8 49.7 30 -7 19.4
21:15 1014 29.94 843 24.89 9.7 49.5 30 -6.9 19.7
21:20 1014 29.94 843 24.89 9.6 49.3 31 -6.8 19.8
21:25 1014 29.94 843 24.89 9.6 49.2 31 -6.6 20.1
21:30 1014 29.94 843 24.89 9.5 49.1 32 -6.5 20.2
21:35 1014 29.94 843 24.89 9.5 49.1 32 -6.5 20.4
21:40 1013 29.91 843 24.89 9.4 48.8 32 -6.3 20.6
21:45 1013 29.91 843 24.89 9.2 48.5 34 -6 21.2
21:50 1013 29.91 843 24.89 8.8 47.8 34 -6.3 20.6
21:55 1013 29.91 843 24.89 8.9 48.1 33 -6.3 20.6
22:00 1013 29.91 843 24.89 9 48.2 33 -6.4 20.5
22:05 1013 29.91 843 24.89 9.2 48.5 33 -6.3 20.6
22:10 1013 29.91 843 24.89 9.2 48.6 33 -6.2 20.9
22:15 1013 29.91 843 24.89 8.9 48 35 -5.9 21.4
22:20 1013 29.91 842 24.86 8.5 47.4 34 -6.3 20.7
22:25 1013 29.91 842 24.86 9 48.1 33 -6.5 20.3
22:30 1013 29.91 842 24.86 9.2 48.5 33 -6.2 20.9
22:35 1013 29.91 842 24.86 9.2 48.6 33 -6.2 20.8
22:40 1013 29.91 842 24.86 9.2 48.6 33 -6.4 20.5
22:45 1013 29.91 842 24.86 9.3 48.7 34 -6 21.3
22:50 1013 29.91 842 24.86 9 48.2 34 -5.9 21.3
22:55 1013 29.91 842 24.86 8.7 47.7 35 -5.9 21.4
23:00 1013 29.91 842 24.86 8.8 47.9 34 -6.2 20.8
23:05 1013 29.91 842 24.86 9.1 48.3 33 -6.2 20.9
23:10 1013 29.91 842 24.86 9.2 48.5 33 -6.2 20.8
23:15 1013 29.91 842 24.86 9.2 48.6 33 -6.1 21.1
23:20 1013 29.91 842 24.86 9 48.1 34 -6.1 21.1
23:25 1013 29.91 842 24.86 8.8 47.9 34 -6.1 21
23:30 1013 29.91 842 24.86 8.8 47.8 35 -5.7 21.8
23:35 1013 29.91 842 24.86 7.8 46 42 -4.2 24.5
23:40 1013 29.91 842 24.86 6.5 43.7 42 -5.6 22
23:45 1013 29.91 842 24.86 6.9 44.5 41 -5.4 22.2
23:50 1013 29.91 842 24.86 7.2 44.9 41 -5.2 22.7
23:55 1013 29.91 842 24.86 7.3 45.1 40 -5.4 22.2
24:00 1013 29.91 842 24.86 7.1 44.8 41 -5.4 22.3